KGCY

Greeneville-Greene County Municipal Airport

Greeneville, Tennessee, USA
METAR KGCY 162355Z AUTO 22006KT 3SM BR 07/06 A3011 RMK A01
Observed Flight Rules
Dec-16 @ 23:55 UTC (34 minutes ago)
Wind Visibility Conditions
220° at 6 knots 3 miles
  • Mist
Temperatures Readings
Current 7°C / 45°F
Dewpoint 6°C / 43°F
Humidity 93%
Altimeter 30.11" Hg
Pressure 1020 hPa
Elevation 490
METAR KGCY 162355Z AUTO 22006KT 3SM BR 07/06 A3011 RMK A01
Observed Flight Rules
Dec-16 @ 23:55 UTC
(34 minutes ago)
Wind Visibility
220° at 6 knots 3 miles
Conditions
  • Mist
Temperature Dewpoint
7°C / 45°F 6°C / 43°F
Humidity Altimeter Pressure
93% 30.11" Hg 1020 hPa